Time;durP1;ratioP1;P1;durP2;ratioP2;P2;SDS_P1;SDS_P2;PMS_P1;PMS_P2;Temp;Humidity;BMP_temperature;BMP_pressure;BME280_temperature;BME280_humidity;BME280_pressure;Samples;Min_cycle;Max_cycle;Signal;HPM_P1;HPM_P2
2022/11/20 00:01:10;;;;;;;21.42;12.07;;;;;;;-145.18;100.00;46676.03;5071809;28;20090;-69
2022/11/20 00:03:36;;;;;;;24.77;12.73;;;;;;;-145.18;100.00;46676.03;5071942;28;20028;-69
2022/11/20 00:06:06;;;;;;;24.93;12.73;;;;;;;-145.18;100.00;46677.97;5066518;28;20033;-69
2022/11/20 00:08:31;;;;;;;24.80;12.45;;;;;;;-145.18;100.00;46672.13;5071597;28;20507;-70
2022/11/20 00:10:56;;;;;;;23.47;11.97;;;;;;;-145.18;100.00;46672.13;5071701;28;20029;-69
2022/11/20 00:13:22;;;;;;;24.40;12.80;;;;;;;-145.18;100.00;46670.16;5071400;28;20451;-69
2022/11/20 00:15:47;;;;;;;25.10;12.00;;;;;;;-145.18;100.00;46668.22;5071911;28;20139;-69
2022/11/20 00:18:13;;;;;;;24.27;12.20;;;;;;;-145.18;100.00;46666.25;5071542;28;20039;-69
2022/11/20 00:20:38;;;;;;;26.30;13.03;;;;;;;-145.18;100.00;46666.25;5071385;28;20533;-69
2022/11/20 00:23:04;;;;;;;26.20;13.07;;;;;;;-145.18;100.00;46656.50;5071239;28;20039;-69
2022/11/20 00:25:29;;;;;;;25.87;13.93;;;;;;;-145.18;100.00;46666.25;5071103;28;20161;-69
2022/11/20 00:27:54;;;;;;;25.40;12.90;;;;;;;-145.18;100.00;46654.53;5071271;28;20045;-69
2022/11/20 00:30:20;;;;;;;27.47;13.13;;;;;;;-145.18;100.00;46660.41;5071535;28;20115;-69
2022/11/20 00:32:45;;;;;;;25.47;12.63;;;;;;;-145.18;100.00;46646.72;5071390;28;20052;-69
2022/11/20 00:35:10;;;;;;;24.00;12.97;;;;;;;-145.18;100.00;46650.63;5071364;28;20058;-69
2022/11/20 00:37:36;;;;;;;31.57;14.20;;;;;;;-145.18;100.00;46648.69;5070693;28;20037;-69
2022/11/20 00:40:01;;;;;;;27.33;13.43;;;;;;;-145.18;100.00;46652.59;5071346;28;20028;-69
2022/11/20 00:42:26;;;;;;;26.83;12.83;;;;;;;-145.18;100.00;46635.00;5070870;28;20549;-69
2022/11/20 00:44:52;;;;;;;26.90;12.97;;;;;;;-145.18;100.00;46635.00;5071031;28;20143;-69
2022/11/20 00:47:17;;;;;;;25.80;12.03;;;;;;;-145.18;100.00;46636.94;5070607;28;20041;-69
2022/11/20 00:49:43;;;;;;;25.80;12.83;;;;;;;-145.18;100.00;46635.00;5071055;28;20540;-69
2022/11/20 00:52:08;;;;;;;26.07;12.03;;;;;;;-145.18;100.00;46646.72;5070779;28;20115;-69
2022/11/20 00:54:34;;;;;;;27.33;13.13;;;;;;;-145.18;100.00;46644.78;5070607;28;20024;-69
2022/11/20 00:56:59;;;;;;;23.87;12.07;;;;;;;-145.18;100.00;46654.53;5070632;28;20044;-69
2022/11/20 00:59:24;;;;;;;27.20;12.43;;;;;;;-145.18;100.00;46652.59;5070678;28;20037;-69
2022/11/20 01:01:50;;;;;;;24.07;12.00;;;;;;;-145.18;100.00;46652.59;5070623;28;20039;-69
2022/11/20 01:04:15;;;;;;;24.27;12.90;;;;;;;-145.18;100.00;46650.63;5070660;28;20044;-69
2022/11/20 01:06:40;;;;;;;25.27;12.60;;;;;;;-145.18;100.00;46648.69;5070368;28;20167;-69
2022/11/20 01:09:12;;;;;;;29.03;13.53;;;;;;;-145.18;100.00;46648.69;5070743;28;20037;-69
2022/11/20 01:11:40;;;;;;;28.08;14.50;;;;;;;-145.18;100.00;46654.53;5070468;28;20396;-69
2022/11/20 01:14:10;;;;;;;24.13;13.30;;;;;;;-145.18;100.00;46654.53;5070549;28;20029;-69
2022/11/20 01:16:39;;;;;;;24.42;12.73;;;;;;;-145.18;100.00;46652.59;5069788;28;20054;-69
2022/11/20 01:19:09;;;;;;;28.42;14.50;;;;;;;-145.18;100.00;46654.53;5070603;28;20028;-69
2022/11/20 01:21:38;;;;;;;25.90;13.63;;;;;;;-145.18;100.00;46656.50;5069741;28;20024;-70
2022/11/20 01:24:05;;;;;;;27.80;13.52;;;;;;;-145.18;100.00;46660.41;5052669;28;20028;-69
2022/11/20 01:26:33;;;;;;;27.65;13.15;;;;;;;-145.18;100.00;46654.53;5069707;28;20517;-70
2022/11/20 01:29:00;;;;;;;26.58;14.07;;;;;;;-145.18;100.00;46662.34;5070217;28;20040;-69
2022/11/20 01:31:26;;;;;;;23.15;13.13;;;;;;;-145.18;100.00;46660.41;5051965;28;20120;-69
2022/11/20 01:33:54;;;;;;;27.90;14.25;;;;;;;-145.18;100.00;46662.34;5070382;28;20100;-69
2022/11/20 01:36:22;;;;;;;38.20;16.92;;;;;;;-145.18;100.00;46658.44;5070166;28;20032;-69
2022/11/20 01:38:51;;;;;;;33.63;15.32;;;;;;;-145.18;100.00;46658.44;5070147;28;20028;-69
2022/11/20 01:44:01;;;;;;;28.70;13.57;;;;;;;-145.18;100.00;46652.59;5070324;28;20078;-69
2022/11/20 01:46:27;;;;;;;25.00;13.30;;;;;;;-145.18;100.00;46640.88;5069938;28;20119;-69
2022/11/20 01:49:00;;;;;;;22.87;11.37;;;;;;;-145.18;100.00;46660.41;5069852;28;20120;-69
2022/11/20 01:51:33;;;;;;;24.13;12.10;;;;;;;-145.18;100.00;46660.41;5069964;28;20392;-69
2022/11/20 01:54:03;;;;;;;24.15;12.88;;;;;;;-145.18;100.00;46676.03;5069881;28;20078;-69
2022/11/20 01:56:33;;;;;;;24.80;12.23;;;;;;;-145.18;100.00;46660.41;5069990;28;20039;-69
2022/11/20 01:59:00;;;;;;;27.45;13.55;;;;;;;-145.18;100.00;46660.41;5070066;28;20140;-69
2022/11/20 02:01:26;;;;;;;25.10;12.02;;;;;;;-145.18;100.00;46660.41;5069843;28;20028;-69
2022/11/20 02:03:52;;;;;;;21.43;11.23;;;;;;;-145.18;100.00;46660.41;5069911;28;20041;-69
2022/11/20 02:06:29;;;;;;;25.58;13.32;;;;;;;-145.18;100.00;46660.41;5069825;28;20033;-69
2022/11/20 02:08:55;;;;;;;22.65;12.55;;;;;;;-145.18;100.00;46660.41;5069781;28;20036;-69
2022/11/20 02:11:21;;;;;;;26.48;12.95;;;;;;;-145.18;100.00;46660.41;5069740;28;20124;-69
2022/11/20 02:13:47;;;;;;;24.55;12.27;;;;;;;-145.18;100.00;46660.41;5070107;28;20028;-69
2022/11/20 02:16:23;;;;;;;23.33;12.10;;;;;;;-145.18;100.00;46660.41;5069856;28;20116;-69
2022/11/20 02:18:49;;;;;;;;;;;;;;;-145.18;100.00;46660.41;5070349;28;20040;-69
2022/11/20 02:21:14;;;;;;;;;;;;;;;-145.18;100.00;46660.41;5051768;28;19916;-69
2022/11/20 02:24:05;;;;;;;27.20;12.75;;;;;;;-145.18;100.00;46660.41;5069428;28;19919;-69
2022/11/20 02:26:34;;;;;;;23.67;11.73;;;;;;;-145.18;100.00;46660.41;5069350;28;20037;-69
2022/11/20 02:29:02;;;;;;;24.63;12.43;;;;;;;-145.18;100.00;46660.41;5071375;28;20039;-69
2022/11/20 02:31:27;;;;;;;23.25;11.43;;;;;;;-145.18;100.00;46660.41;5073627;28;20048;-69
2022/11/20 02:33:58;;;;;;;24.33;11.57;;;;;;;-145.18;100.00;46660.41;5073366;28;20078;-69
2022/11/20 02:36:27;;;;;;;26.02;12.15;;;;;;;-145.18;100.00;46660.41;5073759;28;20054;-69
2022/11/20 02:38:53;;;;;;;25.02;12.55;;;;;;;-145.18;100.00;46660.41;5073714;28;20032;-69
2022/11/20 02:41:18;;;;;;;23.93;13.00;;;;;;;-145.18;100.00;46660.41;5073778;28;20534;-69
2022/11/20 02:43:44;;;;;;;26.30;14.50;;;;;;;-145.18;100.00;46660.41;5073326;28;20078;-69
2022/11/20 02:46:09;;;;;;;23.90;12.77;;;;;;;-145.18;100.00;46660.41;5073675;28;20064;-69
2022/11/20 02:48:34;;;;;;;30.60;13.10;;;;;;;-145.18;100.00;46660.41;5073321;28;20607;-70
2022/11/20 02:51:00;;;;;;;26.93;13.67;;;;;;;-145.18;100.00;46660.41;5073401;28;20104;-69
2022/11/20 02:53:25;;;;;;;24.83;12.27;;;;;;;-145.18;100.00;46660.41;5073155;28;20805;-69
2022/11/20 02:55:51;;;;;;;25.93;13.20;;;;;;;-145.18;100.00;46660.41;5073304;28;20158;-69
2022/11/20 02:58:16;;;;;;;25.53;12.67;;;;;;;-145.18;100.00;46660.41;5073019;28;20036;-69
2022/11/20 03:03:17;;;;;;;28.65;14.05;;;;;;;-145.18;100.00;46660.41;5089156;22;20050;-69
2022/11/20 03:05:42;;;;;;;30.07;13.27;;;;;;;-145.18;100.00;46660.41;5024676;28;20041;-69
2022/11/20 03:08:07;;;;;;;27.93;13.47;;;;;;;-145.18;100.00;46660.41;5033265;28;20037;-69
2022/11/20 03:10:33;;;;;;;25.90;13.07;;;;;;;-145.18;100.00;46660.41;5033693;28;20080;-69
2022/11/20 03:12:58;;;;;;;25.07;12.73;;;;;;;-145.18;100.00;46660.41;5033282;28;20040;-70
2022/11/20 03:15:23;;;;;;;27.97;12.77;;;;;;;-145.18;100.00;46660.41;5015832;28;20030;-70
2022/11/20 03:17:49;;;;;;;26.13;13.47;;;;;;;-145.18;100.00;46660.41;5032977;28;20022;-70
2022/11/20 03:20:14;;;;;;;24.73;13.13;;;;;;;-145.18;100.00;46660.41;5033704;28;20026;-70
2022/11/20 03:22:40;;;;;;;24.23;12.27;;;;;;;-145.18;100.00;46660.41;5033168;28;20490;-70
2022/11/20 03:25:05;;;;;;;26.97;13.03;;;;;;;-145.18;100.00;46660.41;5033322;28;20059;-70
2022/11/20 03:27:34;;;;;;;24.60;13.00;;;;;;;-145.18;100.00;46660.41;5033416;28;20041;-70
2022/11/20 03:30:00;;;;;;;23.83;11.80;;;;;;;-145.18;100.00;46660.41;5033088;28;20037;-70
2022/11/20 03:32:25;;;;;;;22.97;11.17;;;;;;;-145.18;100.00;46658.44;5033294;28;20033;-70
2022/11/20 03:34:51;;;;;;;27.40;13.47;;;;;;;-145.18;100.00;46660.41;5033013;28;20486;-70
2022/11/20 03:37:16;;;;;;;25.00;12.63;;;;;;;-145.18;100.00;46660.41;5033421;28;20112;-70
2022/11/20 03:39:41;;;;;;;27.60;13.20;;;;;;;-145.18;100.00;46660.41;5032635;28;20080;-70
2022/11/20 03:42:44;;;;;;;24.23;12.53;;;;;;;-145.18;100.00;46652.59;5032619;28;20104;-70
2022/11/20 03:44:53;;;;;;;24.88;12.77;;;;;;;-145.18;100.00;46660.41;5032665;28;20079;-70
2022/11/20 03:47:19;;;;;;;22.43;12.03;;;;;;;-145.18;100.00;46660.41;5032564;28;20606;-70
2022/11/20 03:49:44;;;;;;;25.77;12.87;;;;;;;-145.18;100.00;46660.41;5032877;28;20041;-70
2022/11/20 03:52:09;;;;;;;23.03;12.67;;;;;;;-145.18;100.00;46660.41;5032444;28;20454;-70
2022/11/20 03:54:35;;;;;;;21.67;12.17;;;;;;;-145.18;100.00;46660.41;5032720;28;20025;-70
2022/11/20 03:57:00;;;;;;;25.53;12.17;;;;;;;-145.18;100.00;46660.41;5032391;28;20040;-70
2022/11/20 03:59:25;;;;;;;22.40;11.93;;;;;;;-145.18;100.00;46660.41;5032753;28;20040;-70
2022/11/20 04:01:51;;;;;;;23.47;12.03;;;;;;;-145.18;100.00;46660.41;5032128;28;20057;-70
2022/11/20 04:04:16;;;;;;;23.40;10.93;;;;;;;-145.18;100.00;46660.41;5032608;28;20057;-70
2022/11/20 04:06:41;;;;;;;21.20;11.33;;;;;;;-145.18;100.00;46658.44;5032219;28;20045;-70
2022/11/20 04:09:07;;;;;;;22.90;12.00;;;;;;;-145.18;100.00;46660.41;5032087;28;20101;-70
2022/11/20 04:11:34;;;;;;;23.07;11.67;;;;;;;-145.18;100.00;46658.44;5032492;28;20556;-69
2022/11/20 04:14:03;;;;;;;24.40;12.15;;;;;;;-145.18;100.00;46660.41;5031910;28;20033;-70
2022/11/20 04:16:34;;;;;;;23.35;12.40;;;;;;;-145.18;100.00;46660.41;5032486;28;20025;-69
2022/11/20 04:19:01;;;;;;;24.27;12.25;;;;;;;-145.18;100.00;46658.44;5032793;28;20025;-69
2022/11/20 04:21:27;;;;;;;21.77;11.15;;;;;;;-145.18;100.00;46660.41;5038315;28;20107;-69
2022/11/20 04:23:53;;;;;;;26.63;12.80;;;;;;;-145.18;100.00;46660.41;5034065;28;20056;-69
2022/11/20 04:26:20;;;;;;;22.38;12.18;;;;;;;-145.18;100.00;46660.41;5013228;28;20041;-69
2022/11/20 04:28:45;;;;;;;22.50;12.63;;;;;;;-145.18;100.00;46660.41;5031457;28;20045;-69
2022/11/20 04:31:17;;;;;;;23.17;12.17;;;;;;;-145.18;100.00;46660.41;5031445;28;20026;-70
2022/11/20 04:33:42;;;;;;;23.60;12.55;;;;;;;-145.18;100.00;46660.41;5030993;28;20156;-69
2022/11/20 04:36:13;;;;;;;20.60;10.60;;;;;;;-145.18;100.00;46660.41;5031590;28;20417;-69
2022/11/20 04:38:39;;;;;;;23.42;11.68;;;;;;;-145.18;100.00;46660.41;5031667;28;20045;-69
2022/11/20 04:41:08;;;;;;;21.90;11.07;;;;;;;-145.18;100.00;46660.41;5031575;28;20071;-69
2022/11/20 04:43:34;;;;;;;22.27;10.98;;;;;;;-145.18;100.00;46660.41;5031498;28;20026;-69
2022/11/20 04:46:00;;;;;;;22.02;11.10;;;;;;;-145.18;100.00;46660.41;5031273;28;20041;-69
2022/11/20 04:48:27;;;;;;;22.60;12.25;;;;;;;-145.18;100.00;46660.41;5031247;28;20037;-69
2022/11/20 04:50:53;;;;;;;22.92;11.43;;;;;;;-145.18;100.00;46660.41;5030646;28;20047;-69
2022/11/20 04:53:20;;;;;;;23.10;11.97;;;;;;;-145.18;100.00;46660.41;5030838;28;20029;-70
2022/11/20 04:55:45;;;;;;;25.00;12.15;;;;;;;-145.18;100.00;46660.41;5031710;28;20044;-69
2022/11/20 04:58:11;;;;;;;24.10;11.57;;;;;;;-145.18;100.00;46660.41;5030871;28;20021;-69
2022/11/20 05:00:36;;;;;;;23.07;12.17;;;;;;;-145.18;100.00;46660.41;5031408;28;20033;-69
2022/11/20 05:03:02;;;;;;;30.63;13.50;;;;;;;-145.18;100.00;46660.41;5030759;28;20129;-69
2022/11/20 05:05:27;;;;;;;25.33;13.00;;;;;;;-145.18;100.00;46660.41;5031500;28;20034;-69
2022/11/20 05:07:55;;;;;;;21.43;11.77;;;;;;;-145.18;100.00;46660.41;5030656;28;20030;-69
2022/11/20 05:10:20;;;;;;;22.20;11.95;;;;;;;-145.18;100.00;46660.41;5031188;28;20033;-69
2022/11/20 05:12:45;;;;;;;25.70;13.10;;;;;;;-145.18;100.00;46660.41;5030885;28;20416;-69
2022/11/20 05:15:11;;;;;;;22.17;11.80;;;;;;;-145.18;100.00;46660.41;5031049;28;20107;-69
2022/11/20 05:17:36;;;;;;;23.17;12.10;;;;;;;-145.18;100.00;46660.41;5030974;28;20060;-69
2022/11/20 05:20:02;;;;;;;22.60;12.33;;;;;;;-145.18;100.00;46660.41;5030451;28;20119;-69
2022/11/20 05:22:27;;;;;;;25.77;12.13;;;;;;;-145.18;100.00;46660.41;5030733;28;20051;-69
2022/11/20 05:24:52;;;;;;;22.87;12.20;;;;;;;-145.18;100.00;46660.41;5025330;28;20520;-69
2022/11/20 05:27:18;;;;;;;27.80;12.93;;;;;;;-145.18;100.00;46660.41;5029568;28;20021;-69
2022/11/20 05:29:43;;;;;;;25.97;12.27;;;;;;;-145.18;100.00;46660.41;5028284;28;20124;-69
2022/11/20 05:32:09;;;;;;;26.27;13.50;;;;;;;-145.18;100.00;46660.41;5028235;28;20125;-69
2022/11/20 05:34:35;;;;;;;23.73;12.37;;;;;;;-145.18;100.00;46660.41;5023876;28;20033;-69
2022/11/20 05:37:01;;;;;;;24.53;12.40;;;;;;;-145.18;100.00;46660.41;5024069;28;20860;-69
2022/11/20 05:39:26;;;;;;;22.17;11.97;;;;;;;-145.18;100.00;46660.41;5026749;28;20038;-69
2022/11/20 05:42:29;;;;;;;25.57;12.57;;;;;;;-145.18;100.00;46660.41;5021310;28;20037;-69
2022/11/20 05:44:37;;;;;;;19.63;10.23;;;;;;;-145.18;100.00;46660.41;5029051;28;20039;-69
2022/11/20 05:47:02;;;;;;;22.90;11.43;;;;;;;-145.18;100.00;46660.41;5014032;28;20060;-69
2022/11/20 05:49:27;;;;;;;23.63;12.33;;;;;;;-145.18;100.00;46660.41;5030040;28;20120;-69
2022/11/20 05:51:53;;;;;;;24.27;12.33;;;;;;;-145.18;100.00;46660.41;5030237;28;20095;-69
2022/11/20 05:54:18;;;;;;;23.77;11.80;;;;;;;-145.18;100.00;46660.41;5029884;28;20474;-69
2022/11/20 05:56:43;;;;;;;23.83;12.13;;;;;;;-145.18;100.00;46660.41;5030218;28;20117;-69
2022/11/20 05:59:09;;;;;;;23.27;12.47;;;;;;;-145.18;100.00;46660.41;5012119;28;20069;-69
2022/11/20 06:01:35;;;;;;;22.33;12.27;;;;;;;-145.18;100.00;46660.41;5030486;28;20044;-69
2022/11/20 06:04:01;;;;;;;26.48;13.10;;;;;;;-145.18;100.00;46658.44;5029623;28;20057;-69
2022/11/20 06:06:27;;;;;;;23.40;12.90;;;;;;;-145.18;100.00;46660.41;5030363;28;20438;-69
2022/11/20 06:08:52;;;;;;;27.23;13.70;;;;;;;-145.18;100.00;46658.44;5029899;28;20048;-69
2022/11/20 06:11:18;;;;;;;25.27;13.37;;;;;;;-145.18;100.00;46660.41;5012687;28;20037;-69
2022/11/20 06:13:44;;;;;;;27.27;12.57;;;;;;;-145.18;100.00;46660.41;5029912;28;20112;-69
2022/11/20 06:16:10;;;;;;;24.30;13.20;;;;;;;-145.18;100.00;46660.41;5029731;28;20512;-69
2022/11/20 06:18:36;;;;;;;27.30;14.55;;;;;;;-145.18;100.00;46658.44;5030120;28;20044;-69
2022/11/20 06:21:07;;;;;;;26.20;12.93;;;;;;;-145.18;100.00;46660.41;5029493;28;20041;-69
2022/11/20 06:23:33;;;;;;;23.75;12.57;;;;;;;-145.18;100.00;46660.41;5029913;28;20096;-69
2022/11/20 06:26:04;;;;;;;25.40;13.15;;;;;;;-145.18;100.00;46660.41;5029874;28;20038;-69
2022/11/20 06:28:30;;;;;;;23.88;13.18;;;;;;;-145.18;100.00;46660.41;5029767;28;20502;-69
2022/11/20 06:30:55;;;;;;;26.60;13.43;;;;;;;-145.18;100.00;46660.41;5029943;28;20033;-70
2022/11/20 06:33:20;;;;;;;22.33;12.80;;;;;;;-145.18;100.00;46660.41;5029741;28;20033;-69
2022/11/20 06:35:46;;;;;;;23.87;12.67;;;;;;;-145.18;100.00;46660.41;5030049;28;20041;-69
2022/11/20 06:38:11;;;;;;;26.90;13.80;;;;;;;-145.18;100.00;46677.97;5030003;28;20192;-69
2022/11/20 06:40:40;;;;;;;28.67;15.07;;;;;;;-145.18;100.00;46642.81;5012250;28;20152;-69
2022/11/20 06:43:05;;;;;;;26.20;15.45;;;;;;;-145.18;100.00;46642.81;5028100;28;20091;-69
2022/11/20 06:45:30;;;;;;;27.70;15.33;;;;;;;-145.18;100.00;46656.50;5029888;28;20409;-69
2022/11/20 06:47:58;;;;;;;29.67;15.00;;;;;;;-145.18;100.00;46652.59;5029379;28;20632;-69
2022/11/20 06:50:23;;;;;;;32.75;15.90;;;;;;;-145.18;100.00;46650.63;5030083;28;20029;-69
2022/11/20 06:52:48;;;;;;;30.87;16.40;;;;;;;-145.18;100.00;46650.63;5029776;28;20237;-69
2022/11/20 06:55:14;;;;;;;27.53;15.13;;;;;;;-145.18;100.00;46646.72;5030040;28;20088;-69
2022/11/20 06:57:39;;;;;;;30.10;14.80;;;;;;;-145.18;100.00;46652.59;5029940;28;20076;-69
2022/11/20 07:00:05;;;;;;;30.10;14.67;;;;;;;-145.18;100.00;46652.59;5027460;28;20122;-69
2022/11/20 07:02:30;;;;;;;30.05;15.75;;;;;;;-145.18;100.00;46668.22;5029680;28;20058;-69
2022/11/20 07:04:55;;;;;;;25.73;13.87;;;;;;;-145.18;100.00;46670.16;5029596;28;20121;-69
2022/11/20 07:07:21;;;;;;;26.27;14.47;;;;;;;-145.18;100.00;46683.84;5030014;28;20049;-69
2022/11/20 07:09:46;;;;;;;23.67;13.30;;;;;;;-145.18;100.00;46685.78;5040388;28;20064;-69
2022/11/20 07:12:11;;;;;;;27.70;14.20;;;;;;;-145.18;100.00;46685.78;5031632;28;20033;-69
2022/11/20 07:14:37;;;;;;;25.37;13.60;;;;;;;-145.18;100.00;46695.56;5017985;28;20037;-69
2022/11/20 07:17:02;;;;;;;27.27;14.57;;;;;;;-145.18;100.00;46699.47;5033445;28;20045;-69
2022/11/20 07:19:27;;;;;;;28.43;14.77;;;;;;;-145.18;100.00;46699.47;5032543;28;20033;-69
2022/11/20 07:21:53;;;;;;;28.37;14.83;;;;;;;-145.18;100.00;46695.56;5033405;28;20277;-69
2022/11/20 07:24:18;;;;;;;29.53;14.13;;;;;;;-145.18;100.00;46691.66;5033013;28;20095;-69
2022/11/20 07:26:47;;;;;;;27.73;15.10;;;;;;;-145.18;100.00;46693.59;5033275;28;20104;-69
2022/11/20 07:29:13;;;;;;;28.05;14.05;;;;;;;-145.18;100.00;46695.56;5032849;28;20608;-69
2022/11/20 07:31:38;;;;;;;26.77;14.80;;;;;;;-145.18;100.00;46693.59;5015754;28;20040;-69
2022/11/20 07:34:03;;;;;;;31.87;14.87;;;;;;;-145.18;100.00;46693.59;5015033;28;20033;-69
2022/11/20 07:36:29;;;;;;;28.70;14.17;;;;;;;-145.18;100.00;46695.56;5035228;28;20512;-68
2022/11/20 07:38:54;;;;;;;28.13;14.80;;;;;;;-145.18;100.00;46699.47;5044833;28;20481;-69
2022/11/20 07:41:19;;;;;;;26.77;15.47;;;;;;;-145.18;100.00;46699.47;5032684;28;20124;-69
2022/11/20 07:43:45;;;;;;;28.07;15.70;;;;;;;-145.18;100.00;46699.47;5031881;28;20029;-68
2022/11/20 07:46:10;;;;;;;25.00;14.67;;;;;;;-145.18;100.00;46697.50;5032563;28;20037;-68
2022/11/20 07:48:35;;;;;;;30.70;14.53;;;;;;;-145.18;100.00;46695.56;5031567;28;20086;-69
2022/11/20 07:51:01;;;;;;;29.17;15.93;;;;;;;-145.18;100.00;46693.59;5014444;28;20037;-68
2022/11/20 07:53:26;;;;;;;25.10;14.07;;;;;;;-145.18;100.00;46691.66;5031385;28;20056;-69
2022/11/20 07:55:52;;;;;;;26.23;14.63;;;;;;;-145.18;100.00;46685.78;5032297;28;20070;-69
2022/11/20 07:58:19;;;;;;;29.60;15.23;;;;;;;-145.18;100.00;46689.69;5031920;28;20478;-69
2022/11/20 08:00:44;;;;;;;27.13;14.95;;;;;;;-145.18;100.00;46674.06;5031724;28;20652;-69
2022/11/20 08:03:10;;;;;;;28.33;15.00;;;;;;;-145.18;100.00;46660.41;5030739;28;20084;-69
2022/11/20 08:05:35;;;;;;;30.40;15.87;;;;;;;-145.18;100.00;46650.63;5029776;28;20608;-69
2022/11/20 08:08:00;;;;;;;26.10;15.23;;;;;;;-145.18;100.00;46638.91;5031037;28;20095;-69
2022/11/20 08:10:26;;;;;;;29.57;15.97;;;;;;;-145.18;100.00;46635.00;5036297;28;20099;-69
2022/11/20 08:15:38;;;;;;;29.85;16.35;;;;;;;-145.18;100.00;46629.13;5039630;28;20087;-69
2022/11/20 08:18:10;;;;;;;33.15;16.83;;;;;;;-145.18;100.00;46629.13;5038682;28;20471;-69
2022/11/20 08:20:36;;;;;;;29.20;15.93;;;;;;;-145.18;100.00;46631.09;5030702;28;20088;-69
2022/11/20 08:23:05;;;;;;;26.70;15.80;;;;;;;-145.18;100.00;46625.22;5013468;28;20030;-69
2022/11/20 08:25:31;;;;;;;28.92;16.20;;;;;;;-145.18;100.00;46613.50;5031528;28;20031;-69
2022/11/20 08:28:05;;;;;;;31.88;15.65;;;;;;;-145.18;100.00;46611.56;5013752;28;20445;-69
2022/11/20 08:30:30;;;;;;;32.22;17.27;;;;;;;-145.18;100.00;46613.50;5031252;28;20025;-70
2022/11/20 08:33:01;;;;;;;29.37;15.90;;;;;;;-145.18;100.00;46597.88;5031255;28;20042;-70
2022/11/20 08:35:26;;;;;;;31.13;16.98;;;;;;;-145.18;100.00;46597.88;5030176;28;20030;-69
2022/11/20 08:37:52;;;;;;;29.93;16.57;;;;;;;-145.18;100.00;46593.97;5031218;28;20099;-69
2022/11/20 08:40:17;;;;;;;31.57;16.63;;;;;;;-145.18;100.00;46592.03;5030759;28;20026;-69
2022/11/20 08:42:49;;;;;;;30.73;17.10;;;;;;;-145.18;100.00;46590.06;5031461;28;20046;-69
2022/11/20 08:45:16;;;;;;;27.70;15.90;;;;;;;-145.18;100.00;46586.16;5030507;28;20033;-70
2022/11/20 08:47:42;;;;;;;30.02;16.42;;;;;;;-145.18;100.00;46584.22;5031020;28;20049;-70
2022/11/20 08:50:09;;;;;;;32.38;16.38;;;;;;;-145.18;100.00;46588.13;5030656;28;20505;-69
2022/11/20 08:52:35;;;;;;;30.50;17.15;;;;;;;-145.18;100.00;46586.16;5031400;28;20042;-69
2022/11/20 08:55:00;;;;;;;29.17;17.30;;;;;;;-145.18;100.00;46588.13;5030740;28;20029;-69
2022/11/20 08:57:25;;;;;;;31.93;16.63;;;;;;;-145.18;100.00;46590.06;5031173;28;20033;-69
2022/11/20 08:59:51;;;;;;;28.53;17.17;;;;;;;-145.18;100.00;46586.16;5030892;28;20107;-70
2022/11/20 09:02:16;;;;;;;28.83;16.27;;;;;;;-145.18;100.00;46588.13;5013350;28;20069;-70
2022/11/20 09:04:41;;;;;;;31.00;16.57;;;;;;;-145.18;100.00;46586.16;5030958;28;20045;-70
2022/11/20 09:07:07;;;;;;;27.50;16.17;;;;;;;-145.18;100.00;46584.22;5030983;28;20033;-70
2022/11/20 09:09:33;;;;;;;30.63;16.97;;;;;;;-145.18;100.00;46582.25;5030569;28;20072;-70
2022/11/20 09:11:58;;;;;;;28.60;17.30;;;;;;;-145.18;100.00;46586.16;5031193;28;20026;-70
2022/11/20 09:14:28;;;;;;;26.60;16.23;;;;;;;-145.18;100.00;46586.16;5030543;28;20075;-70
2022/11/20 09:16:56;;;;;;;31.27;17.20;;;;;;;-145.18;100.00;46586.16;5031026;28;20026;-70
2022/11/20 09:19:24;;;;;;;29.40;17.00;;;;;;;-145.18;100.00;46584.22;5030804;28;20090;-70
2022/11/20 09:21:49;;;;;;;30.25;16.80;;;;;;;-145.18;100.00;46592.03;5030967;28;20033;-70
2022/11/20 09:24:14;;;;;;;31.57;17.17;;;;;;;-145.18;100.00;46593.97;5030434;28;20049;-70
2022/11/20 09:26:40;;;;;;;30.30;17.13;;;;;;;-145.18;100.00;46590.06;5031065;28;20026;-70
2022/11/20 09:29:05;;;;;;;28.60;18.03;;;;;;;-145.18;100.00;46590.06;5030514;28;20030;-71
2022/11/20 09:31:31;;;;;;;27.97;16.50;;;;;;;-145.18;100.00;46590.06;5030741;28;20025;-71
2022/11/20 09:33:56;;;;;;;30.87;18.00;;;;;;;-145.18;100.00;46590.06;5030209;28;20041;-71
2022/11/20 09:36:21;;;;;;;37.90;19.13;;;;;;;-145.18;100.00;46593.97;5030659;28;20521;-72
2022/11/20 09:38:47;;;;;;;29.73;17.37;;;;;;;-145.18;100.00;46590.06;5030104;28;20042;-72
2022/11/20 09:41:37;;;;;;;29.07;18.30;;;;;;;-145.18;100.00;46584.22;5029997;28;20033;-72
2022/11/20 09:44:25;;;;;;;33.40;17.80;;;;;;;-145.18;100.00;46590.06;5029440;28;20045;-72
2022/11/20 09:46:59;;;;;;;30.45;17.45;;;;;;;-145.18;100.00;46588.13;5030381;28;20037;-72
2022/11/20 09:49:43;;;;;;;32.50;16.98;;;;;;;-145.18;100.00;46593.97;5029884;28;20022;-72
2022/11/20 09:52:30;;;;;;;37.85;18.90;;;;;;;-145.18;100.00;46586.16;5030234;28;20087;-72
2022/11/20 09:54:56;;;;;;;32.40;18.50;;;;;;;-145.18;100.00;46584.22;5029620;28;20021;-73
2022/11/20 09:57:30;;;;;;;32.00;19.07;;;;;;;-145.18;100.00;46590.06;5030003;28;20120;-73
2022/11/20 10:00:00;;;;;;;34.17;19.95;;;;;;;-145.18;100.00;46582.25;5029714;28;20033;-73
2022/11/20 10:02:42;;;;;;;33.10;18.83;;;;;;;-145.18;100.00;46593.97;5029652;28;20049;-73
2022/11/20 10:05:35;;;;;;;34.58;18.33;;;;;;;-145.18;100.00;46601.78;5029154;28;20067;-74
2022/11/20 10:08:15;;;;;;;34.72;20.52;;;;;;;-145.18;100.00;46613.50;5024682;28;20056;-74
2022/11/20 10:10:45;;;;;;;35.42;20.42;;;;;;;-145.18;100.00;46617.41;5029834;28;20026;-75
2022/11/20 10:13:32;;;;;;;37.30;20.48;;;;;;;-145.18;100.00;46640.88;5011070;28;20068;-73
2022/11/20 10:16:03;;;;;;;39.35;21.17;;;;;;;-145.18;100.00;46660.41;5029697;28;20363;-72
2022/11/20 10:18:44;;;;;;;40.67;21.48;;;;;;;-145.18;100.00;46672.13;5029541;28;20627;-72
2022/11/20 10:21:15;;;;;;;40.38;21.05;;;;;;;-145.18;100.00;46672.13;5029854;28;20033;-72
2022/11/20 10:24:14;;;;;;;37.00;20.17;;;;;;;-145.18;100.00;46687.75;5029616;28;20092;-72
2022/11/20 10:27:04;;;;;;;39.53;21.27;;;;;;;-145.18;100.00;46685.78;5009979;28;20060;-72
2022/11/20 10:29:33;;;;;;;40.92;20.60;;;;;;;-145.18;100.00;46687.75;5004610;28;20036;-71
2022/11/20 10:32:08;;;;;;;40.63;20.98;;;;;;;-145.18;100.00;46691.66;5028577;28;20107;-72
2022/11/20 10:34:58;;;;;;;43.22;21.40;;;;;;;-145.18;100.00;46695.56;5028942;28;20991;-72
2022/11/20 10:37:32;;;;;;;43.55;22.20;;;;;;;-145.18;100.00;46695.56;5029495;28;20440;-72
2022/11/20 10:40:04;;;;;;;47.95;24.00;;;;;;;-145.18;100.00;46691.66;5025262;28;20551;-73
2022/11/20 10:42:46;;;;;;;50.65;23.25;;;;;;;-145.18;100.00;46699.47;5027297;28;20030;-73
2022/11/20 10:45:20;;;;;;;55.20;23.95;;;;;;;-145.18;100.00;46699.47;5028817;28;20060;-73
2022/11/20 10:47:45;;;;;;;48.15;22.50;;;;;;;-145.18;100.00;46699.47;5023416;28;20054;-72
2022/11/20 10:50:15;;;;;;;50.83;23.17;;;;;;;-145.18;100.00;46697.50;5038082;28;20072;-72
2022/11/20 10:53:05;;;;;;;52.20;24.40;;;;;;;-145.18;100.00;46695.56;5015876;28;20026;-72
2022/11/20 10:55:42;;;;;;;56.17;25.67;;;;;;;-145.18;100.00;46699.47;5032747;28;20040;-72
2022/11/20 10:58:22;;;;;;;46.33;22.35;;;;;;;-145.18;100.00;46699.47;5033213;28;20037;-72
2022/11/20 11:00:47;;;;;;;53.85;24.60;;;;;;;-145.18;100.00;46699.47;5017416;28;20057;-72
2022/11/20 11:03:28;;;;;;;54.90;24.77;;;;;;;-145.18;100.00;46699.47;5016403;28;20045;-72
2022/11/20 11:06:10;;;;;;;48.37;23.47;;;;;;;-145.18;100.00;46697.50;5032976;28;20029;-72